Portada
METAR-TAF:

METAR-TAF

Aeropuertos :

Fort-de-France, Martinica

Aeropuerto Internacional de Martinica Aimé Césaire

latitud: 14-36N, longitud: 061-00W, altitud: 5 m

Observación

El informe se hizo hace 28 minutos, a las 17:30 UTC
Viento 12 kt del este, variando entre este-noreste y sureste
Temperatura 30°C
Humedad 55%
Presión 1014 hPa
Visibilidad 10 km o más
Escasas nubes a una altura de 3400 ft

METAR: TFFF 241730Z AUTO 09012KT 060V130 9999 FEW034 30/20 Q1014 NOSIG

Hora: 13:58 (17:58 UTC)

Pronóstico

El informe se hizo hace 58 minutos, a las 17:00 UTC
Pronóstico válido del 24 a las 18 UTC al 25 a las 18 UTC
Viento 12 kt del este
Visibilidad 10 km o más
Nubes dispersas a una altura de 3500 ft
Probabilidad 40% :
Temporalmente
del 25 a las 03 UTC al 25 a las 15 UTC
Visibilidad: 4000 m
Nubes dispersas a una altura de 1800 ft, Cumulus congestus.
chaparrones de lluvia

TAF: TFFF 241700Z 2418/2518 10012KT 9999 SCT035 PROB40 TEMPO 2503/2515 4000 SHRA SCT018TCU

Observaciones y pronósticos meteorológicos de más de 4000 aeropuertos (mensajes METAR y TAF).

Los puntos amarillos y rojos representan las estaciones disponibles.

Ponga el ratón en el punto deseado para ver el nombre de la estación.

Haga clic para ver las observaciones y los pronósticos meteorológicos.

Para cambiar el mapa : haga clic en los botones verdes con una cruz de color negro para hacer un zoom, en el botón verde con un guión para alejar o en las flechas verdes para mapas adyacentes.


METAR-TAF: